»·PEaware :: N77CP KEMT-KBUR

N77CP :: KEMT-KBUR

FLIGHT INFORMATION

Flight Status: Arrived
Operator: Privately registered:
United States
More flights under this callsign
Pilot: Les P. (123)
Aircraft: CESSNA T210 TURBO CENTURION
(T210)
More flights by this aircraft type
Origin: KEMT El Monte
United States
Destination: KBUR Bob Hope-Burbank
United States
More flights between these airports :: More routes between these airports
Route: +PDZ V186 VNY
File this flight plan on PilotEdge
Remarks: TEC ONTP1
Altitude:
(Current/Filed)
6,000ft
Speed:
(Current/Filed)
166kts
Departed: 21-Nov-20 05:33 PM
Arrived: 21-Nov-20 05:59 PM
Distance/Time
Traveled:
17nm/0:26
Distance/Time
To Go:
Arrived

Flight Plot

Page will automatically refresh every two minutes.


Map Options




Map Legend


Flown Route
Filed Route
Departure Airport
Arrival Airport
Navaid (VOR, NDB)
Fix

Horizontal Profiles

Position Reports

Time Latitude Longitude Heading Altitude Ground
Speed
21-Nov-20 16:47 34.086051 -118.033306 24 289ft 0kts
21-Nov-20 16:48 34.086051 -118.033306 24 289ft 0kts
21-Nov-20 16:49 34.086051 -118.033306 24 289ft 0kts
21-Nov-20 16:50 34.086051 -118.033306 24 289ft 0kts
21-Nov-20 16:51 34.086051 -118.033306 24 289ft 0kts
21-Nov-20 16:52 34.086051 -118.033306 24 289ft 0kts
21-Nov-20 16:53 34.086051 -118.033306 24 289ft 0kts
21-Nov-20 16:54 34.086051 -118.033306 24 289ft 0kts
21-Nov-20 16:55 34.086051 -118.033306 24 289ft 0kts
21-Nov-20 16:56 34.086051 -118.033306 24 289ft 0kts
21-Nov-20 16:57 34.086051 -118.033306 24 289ft 0kts
21-Nov-20 16:58 34.086051 -118.033306 24 289ft 0kts
21-Nov-20 16:59 34.086051 -118.033306 24 289ft 0kts
21-Nov-20 17:00 34.086051 -118.033306 24 289ft 0kts
21-Nov-20 17:01 34.086051 -118.033306 24 289ft 0kts
21-Nov-20 17:02 34.086051 -118.033306 24 289ft 0kts
21-Nov-20 17:03 34.086051 -118.033306 24 289ft 0kts
21-Nov-20 17:04 34.086051 -118.033306 24 289ft 0kts
21-Nov-20 17:05 34.086051 -118.033306 24 289ft 0kts
21-Nov-20 17:06 34.086051 -118.033306 24 289ft 0kts
21-Nov-20 17:07 34.086051 -118.033306 24 289ft 0kts
21-Nov-20 17:08 34.086051 -118.033306 24 289ft 0kts
21-Nov-20 17:09 34.086051 -118.033306 24 289ft 0kts
21-Nov-20 17:10 34.086051 -118.033306 24 289ft 0kts
21-Nov-20 17:11 34.086051 -118.033306 24 289ft 0kts
21-Nov-20 17:12 34.086051 -118.033306 24 289ft 0kts
21-Nov-20 17:13 34.086051 -118.033306 24 289ft 0kts
21-Nov-20 17:14 34.086051 -118.033306 24 289ft 0kts
21-Nov-20 17:15 34.086051 -118.033306 24 289ft 0kts
21-Nov-20 17:16 34.086051 -118.033306 24 289ft 0kts
21-Nov-20 17:17 34.086051 -118.033306 24 289ft 0kts
21-Nov-20 17:18 34.086051 -118.033306 24 289ft 0kts
21-Nov-20 17:19 34.086051 -118.033306 24 289ft 0kts
21-Nov-20 17:20 34.086051 -118.033306 24 289ft 0kts
21-Nov-20 17:21 34.086051 -118.033306 24 289ft 0kts
21-Nov-20 17:22 34.086689 -118.033576 17 288ft 9kts
21-Nov-20 17:23 34.088316 -118.032852 22 291ft 4kts
21-Nov-20 17:24 34.090692 -118.031587 303 296ft 0kts
21-Nov-20 17:25 34.090692 -118.031589 304 296ft 0kts
21-Nov-20 17:26 34.090692 -118.031589 305 296ft 0kts
21-Nov-20 17:27 34.090692 -118.031589 304 296ft 0kts
21-Nov-20 17:28 34.090692 -118.031589 304 296ft 0kts
21-Nov-20 17:29 34.090692 -118.031589 305 296ft 0kts
21-Nov-20 17:30 34.090692 -118.031589 304 296ft 0kts
21-Nov-20 17:31 34.090695 -118.031593 303 296ft 1kts
21-Nov-20 17:32 34.083668 -118.036289 206 472ft 82kts
21-Nov-20 17:33 34.061810 -118.047531 202 1557ft 87kts
21-Nov-20 17:34 34.039641 -118.042353 137 2546ft 90kts
21-Nov-20 17:35 34.029950 -118.019226 109 3708ft 72kts
21-Nov-20 17:36 34.030666 -117.996504 39 4717ft 76kts
21-Nov-20 17:37 34.054561 -117.993496 1 5737ft 104kts
21-Nov-20 17:38 34.072978 -118.020841 293 6357ft 153kts
21-Nov-20 17:39 34.090168 -118.072883 291 5937ft 165kts
21-Nov-20 17:40 34.106000 -118.122365 291 5942ft 160kts
21-Nov-20 17:41 34.121816 -118.171877 291 5943ft 159kts
21-Nov-20 17:42 34.132089 -118.219898 273 5942ft 159kts
21-Nov-20 17:43 34.134374 -118.270743 273 5933ft 159kts
21-Nov-20 17:44 34.136725 -118.324382 273 5934ft 158kts
21-Nov-20 17:45 34.139063 -118.377403 273 5933ft 158kts
21-Nov-20 17:46 34.141399 -118.430719 273 5934ft 158kts
21-Nov-20 17:47 34.143796 -118.483883 273 5826ft 164kts
21-Nov-20 17:48 34.146356 -118.540572 273 4891ft 169kts
21-Nov-20 17:50 34.148673 -118.595996 273 4000ft 155kts
21-Nov-20 17:51 34.168009 -118.625145 18 3985ft 117kts
21-Nov-20 17:52 34.179208 -118.592552 81 3989ft 109kts
21-Nov-20 17:53 34.188181 -118.554183 72 3996ft 144kts
21-Nov-20 17:54 34.197978 -118.508846 81 3576ft 167kts
21-Nov-20 17:55 34.198446 -118.461997 92 2852ft 125kts
21-Nov-20 17:56 34.198376 -118.425374 87 2113ft 94kts
21-Nov-20 17:57 34.198245 -118.395930 92 1497ft 84kts
21-Nov-20 17:58 34.197918 -118.369820 93 796ft 74kts
21-Nov-20 17:59 34.197561 -118.358207 144 711ft 5kts
21-Nov-20 18:00 34.197026 -118.357992 182 709ft 0kts
21-Nov-20 18:01 34.196460 -118.359069 194 710ft 10kts
21-Nov-20 18:02 34.196260 -118.359421 344 710ft 0kts
21-Nov-20 18:03 34.196260 -118.359421 344 710ft 0kts

Navigation Log

Ident Type
Flight plan parsing failed, navigation log unavailable